createdAt,value
2018-11-25T00:00:37.863Z,0.24
2018-11-25T00:03:07.148Z,0.25
2018-11-25T00:05:36.536Z,0.26
2018-11-25T00:08:07.360Z,0.28
2018-11-25T00:10:36.616Z,0.29
2018-11-25T00:13:05.929Z,0.30
2018-11-25T00:15:35.318Z,0.20
2018-11-25T00:18:04.806Z,0.24
2018-11-25T00:20:34.365Z,0.25
2018-11-25T00:23:03.823Z,0.23
2018-11-25T00:25:33.318Z,0.20
2018-11-25T00:28:02.803Z,0.15
2018-11-25T00:30:32.281Z,0.10
2018-11-25T00:33:01.794Z,0.06
2018-11-25T00:35:31.169Z,-0.04
2018-11-25T00:38:00.890Z,-0.06
2018-11-25T00:40:30.455Z,-0.12
2018-11-25T00:42:59.932Z,-0.15
2018-11-25T00:45:29.720Z,-0.21
2018-11-25T00:47:59.110Z,-0.23
2018-11-25T00:50:28.555Z,-0.23
2018-11-25T00:52:58.183Z,-0.20
2018-11-25T00:55:27.515Z,-0.21
2018-11-25T00:57:57.408Z,-0.20
2018-11-25T01:00:26.931Z,-0.21
2018-11-25T01:02:56.928Z,-0.22
2018-11-25T01:05:26.417Z,-0.21
2018-11-25T01:07:55.580Z,-0.21
2018-11-25T01:10:24.954Z,-0.25
2018-11-25T01:12:54.436Z,-0.23
2018-11-25T01:15:24.079Z,-0.25
2018-11-25T01:17:53.205Z,-0.31
2018-11-25T01:20:23.134Z,-0.37
2018-11-25T01:22:52.477Z,-0.47
2018-11-25T01:25:22.076Z,-0.43
2018-11-25T01:27:51.645Z,-0.45
2018-11-25T01:30:20.971Z,-0.47
2018-11-25T01:32:50.185Z,-0.46
2018-11-25T01:35:19.745Z,-0.47
2018-11-25T01:37:49.080Z,-0.50
2018-11-25T01:40:19.622Z,-0.49
2018-11-25T01:42:49.353Z,-0.47
2018-11-25T01:45:18.907Z,-0.51
2018-11-25T01:47:48.208Z,-0.53
2018-11-25T01:50:18.506Z,-0.49
2018-11-25T01:52:48.057Z,-0.46
2018-11-25T01:55:19.206Z,-0.48
2018-11-25T01:57:48.471Z,-0.50
2018-11-25T02:00:19.785Z,-0.52
2018-11-25T02:02:49.284Z,-0.51
2018-11-25T02:05:18.621Z,-0.52
2018-11-25T02:07:47.843Z,-0.50
2018-11-25T02:10:17.982Z,-0.51
2018-11-25T02:12:47.259Z,-0.51
2018-11-25T02:15:17.048Z,-0.55
2018-11-25T02:17:46.516Z,-0.59
2018-11-25T02:20:24.367Z,-0.59
2018-11-25T02:22:54.733Z,-0.59
2018-11-25T02:25:23.954Z,-0.61
2018-11-25T02:27:52.929Z,-0.58
2018-11-25T02:30:22.511Z,-0.59
2018-11-25T02:32:51.889Z,-0.60
2018-11-25T02:35:21.082Z,-0.61
2018-11-25T02:37:50.392Z,-0.62
2018-11-25T02:40:19.564Z,-0.59
2018-11-25T02:42:48.938Z,-0.57
2018-11-25T02:45:19.778Z,-0.56
2018-11-25T02:47:49.169Z,-0.54
2018-11-25T02:50:24.110Z,-0.54
2018-11-25T02:52:53.823Z,-0.57
2018-11-25T02:55:24.706Z,-0.62
2018-11-25T02:57:53.916Z,-0.66
2018-11-25T03:00:23.458Z,-0.71
2018-11-25T03:02:52.962Z,-0.67
2018-11-25T03:05:22.320Z,-0.68
2018-11-25T03:07:52.045Z,-0.64
2018-11-25T03:10:21.428Z,-0.69
2018-11-25T03:12:50.618Z,-0.66
2018-11-25T03:15:20.083Z,-0.66
2018-11-25T03:17:49.312Z,-0.69
2018-11-25T03:20:18.958Z,-0.65
2018-11-25T03:22:48.319Z,-0.68
2018-11-25T03:25:18.447Z,-0.73
2018-11-25T03:27:48.124Z,-0.72
2018-11-25T03:30:20.218Z,-0.70
2018-11-25T03:32:51.403Z,-0.69
2018-11-25T03:35:21.239Z,-0.64
2018-11-25T03:37:50.294Z,-0.63
2018-11-25T03:40:20.068Z,-0.59
2018-11-25T03:42:49.767Z,-0.57
2018-11-25T03:45:20.805Z,-0.55
2018-11-25T03:47:50.222Z,-0.53
2018-11-25T03:50:19.714Z,-0.48
2018-11-25T03:52:49.200Z,-0.46
2018-11-25T03:55:18.922Z,-0.47
2018-11-25T03:57:48.312Z,-0.46
2018-11-25T04:00:21.458Z,-0.39
2018-11-25T04:02:51.654Z,-0.37
2018-11-25T04:05:21.236Z,-0.37
2018-11-25T04:07:50.579Z,-0.37
2018-11-25T04:10:20.331Z,-0.38
2018-11-25T04:12:49.586Z,-0.39
2018-11-25T04:15:19.700Z,-0.37
2018-11-25T04:17:49.173Z,-0.38
2018-11-25T04:20:20.466Z,-0.37
2018-11-25T04:22:50.113Z,-0.40
2018-11-25T04:25:19.411Z,-0.44
2018-11-25T04:27:48.929Z,-0.49
2018-11-25T04:30:19.645Z,-0.50
2018-11-25T04:32:49.715Z,-0.55
2018-11-25T04:35:19.385Z,-0.57
2018-11-25T04:37:48.659Z,-0.60
2018-11-25T04:40:18.698Z,-0.60
2018-11-25T04:42:48.192Z,-0.64
2018-11-25T04:45:18.084Z,-0.68
2018-11-25T04:47:47.772Z,-0.67
2018-11-25T04:50:21.102Z,-0.67
2018-11-25T04:52:50.514Z,-0.62
2018-11-25T04:55:19.781Z,-0.66
2018-11-25T04:57:50.704Z,-0.66
2018-11-25T05:00:20.662Z,-0.66
2018-11-25T05:02:50.528Z,-0.62
2018-11-25T05:05:19.959Z,-0.60
2018-11-25T05:07:49.242Z,-0.61
2018-11-25T05:10:19.335Z,-0.60
2018-11-25T05:12:48.893Z,-0.64
2018-11-25T05:15:20.210Z,-0.63
2018-11-25T05:17:49.490Z,-0.63
2018-11-25T05:20:19.302Z,-0.63
2018-11-25T05:22:48.484Z,-0.63
2018-11-25T05:25:18.571Z,-0.67
2018-11-25T05:27:48.209Z,-0.64
2018-11-25T05:30:19.347Z,-0.62
2018-11-25T05:32:48.524Z,-0.64
2018-11-25T05:35:18.974Z,-0.61
2018-11-25T05:37:48.471Z,-0.61
2018-11-25T05:40:17.897Z,-0.59
2018-11-25T05:42:47.396Z,-0.59
2018-11-25T05:45:20.373Z,-0.55
2018-11-25T05:47:49.666Z,-0.59
2018-11-25T05:50:19.943Z,-0.59
2018-11-25T05:52:49.336Z,-0.60
2018-11-25T05:55:18.848Z,-0.64
2018-11-25T05:57:48.025Z,-0.66
2018-11-25T06:00:24.002Z,-0.67
2018-11-25T06:02:53.374Z,-0.73
2018-11-25T06:05:23.155Z,-0.77
2018-11-25T06:07:52.616Z,-0.75
2018-11-25T06:10:22.133Z,-0.77
2018-11-25T06:12:51.423Z,-0.77
2018-11-25T06:15:21.928Z,-0.77
2018-11-25T06:17:51.501Z,-0.75
2018-11-25T06:20:21.309Z,-0.74
2018-11-25T06:22:51.200Z,-0.70
2018-11-25T06:25:22.822Z,-0.70
2018-11-25T06:27:52.404Z,-0.70
2018-11-25T06:30:23.202Z,-0.75
2018-11-25T06:32:59.962Z,-0.72
2018-11-25T06:35:29.714Z,-0.69
2018-11-25T06:37:59.742Z,-0.71
2018-11-25T06:40:29.384Z,-0.73
2018-11-25T06:42:59.034Z,-0.69
2018-11-25T06:45:32.133Z,-0.68
2018-11-25T06:48:01.273Z,-0.66
2018-11-25T06:50:30.715Z,-0.66
2018-11-25T06:53:00.460Z,-0.72
2018-11-25T06:55:29.751Z,-0.74
2018-11-25T06:57:59.248Z,-0.75
2018-11-25T07:00:28.940Z,-0.78
2018-11-25T07:02:58.652Z,-0.71
2018-11-25T07:05:28.032Z,-0.66
2018-11-25T07:07:57.621Z,-0.66
2018-11-25T07:10:27.114Z,-1.21
2018-11-25T07:12:56.468Z,-0.67
2018-11-25T07:15:25.819Z,-0.67
2018-11-25T07:17:55.192Z,-0.66
2018-11-25T07:20:24.626Z,-0.62
2018-11-25T07:22:54.329Z,-0.66
2018-11-25T07:25:24.134Z,-0.65
2018-11-25T07:27:54.058Z,-0.67
2018-11-25T07:30:26.874Z,-0.65
2018-11-25T07:32:56.369Z,-0.60
2018-11-25T07:35:27.438Z,-0.58
2018-11-25T07:37:57.015Z,-0.59
2018-11-25T07:40:26.873Z,-0.59
2018-11-25T07:42:56.275Z,-0.53
2018-11-25T07:45:30.608Z,-0.54
2018-11-25T07:47:57.530Z,-0.58
2018-11-25T07:50:27.886Z,-0.53
2018-11-25T07:52:57.297Z,-0.58
2018-11-25T07:55:27.051Z,-0.58
2018-11-25T07:58:01.052Z,-0.54
2018-11-25T08:00:30.728Z,-0.51
2018-11-25T08:03:00.505Z,-0.54
2018-11-25T08:05:29.977Z,-0.57
2018-11-25T08:07:59.691Z,-0.49
2018-11-25T08:10:29.034Z,-0.53
2018-11-25T08:12:58.637Z,-0.49
2018-11-25T08:15:28.036Z,-0.44
2018-11-25T08:17:57.314Z,-0.48
2018-11-25T08:20:26.836Z,-0.43
2018-11-25T08:22:56.452Z,-0.41
2018-11-25T08:25:25.736Z,-0.38
2018-11-25T08:27:55.308Z,-0.42
2018-11-25T08:30:25.310Z,-0.37
2018-11-25T08:32:54.681Z,-0.37
2018-11-25T08:35:23.945Z,-0.32
2018-11-25T08:37:53.413Z,-0.34
2018-11-25T08:40:24.325Z,-0.25
2018-11-25T08:42:53.905Z,-0.28
2018-11-25T08:45:23.275Z,-0.22
2018-11-25T08:47:52.575Z,-0.25
2018-11-25T08:50:21.989Z,-0.38
2018-11-25T08:52:52.471Z,-0.22
2018-11-25T08:55:22.972Z,-0.16
2018-11-25T08:57:52.278Z,-0.11
2018-11-25T09:00:22.442Z,-0.08
2018-11-25T09:02:52.270Z,-0.08
2018-11-25T09:05:21.653Z,-0.06
2018-11-25T09:07:50.915Z,-0.02
2018-11-25T09:10:20.939Z,0.02
2018-11-25T09:12:56.010Z,0.05
2018-11-25T09:15:25.834Z,0.10
2018-11-25T09:17:55.383Z,0.11
2018-11-25T09:20:24.772Z,0.17
2018-11-25T09:22:54.389Z,0.14
2018-11-25T09:25:28.205Z,0.20
2018-11-25T09:27:58.008Z,0.26
2018-11-25T09:30:28.309Z,0.27
2018-11-25T09:32:57.943Z,0.31
2018-11-25T09:35:27.427Z,0.35
2018-11-25T09:37:56.924Z,0.33
2018-11-25T09:40:27.356Z,0.32
2018-11-25T09:42:56.872Z,0.36
2018-11-25T09:45:26.344Z,0.38
2018-11-25T09:47:55.792Z,0.38
2018-11-25T09:50:25.484Z,0.45
2018-11-25T09:52:54.787Z,0.45
2018-11-25T09:55:24.997Z,0.41
2018-11-25T09:57:58.655Z,0.51
2018-11-25T10:00:37.059Z,0.54
2018-11-25T10:03:07.525Z,0.49
2018-11-25T10:05:36.966Z,0.51
2018-11-25T10:08:06.230Z,0.65
2018-11-25T10:10:35.580Z,0.64
2018-11-25T10:13:05.825Z,0.65
2018-11-25T10:15:35.584Z,0.68
2018-11-25T10:18:05.216Z,0.69
2018-11-25T10:20:34.641Z,0.71
2018-11-25T10:23:04.029Z,0.76
2018-11-25T10:25:33.273Z,0.79
2018-11-25T10:28:02.931Z,0.84
2018-11-25T10:30:32.640Z,0.89
2018-11-25T10:33:03.831Z,0.94
2018-11-25T10:35:33.339Z,1.02
2018-11-25T10:38:02.741Z,1.06
2018-11-25T10:40:32.338Z,1.11
2018-11-25T10:43:02.002Z,1.10
2018-11-25T10:45:31.337Z,1.18
2018-11-25T10:48:00.644Z,1.22
2018-11-25T10:50:30.216Z,1.26
2018-11-25T10:52:59.936Z,1.34
2018-11-25T10:55:29.518Z,1.39
2018-11-25T10:57:59.318Z,1.42
2018-11-25T11:00:35.256Z,1.42
2018-11-25T11:03:11.047Z,1.49
2018-11-25T11:05:45.348Z,1.50
2018-11-25T11:08:14.788Z,1.53
2018-11-25T11:10:49.426Z,1.63
2018-11-25T11:13:19.207Z,1.71
2018-11-25T11:16:02.205Z,1.74
2018-11-25T11:18:31.832Z,1.79
2018-11-25T11:21:01.084Z,1.75
2018-11-25T11:23:30.443Z,1.81
2018-11-25T11:26:06.640Z,1.87
2018-11-25T11:28:30.866Z,1.93
2018-11-25T11:31:00.410Z,1.92
2018-11-25T11:33:30.286Z,1.90
2018-11-25T11:35:59.783Z,1.87
2018-11-25T11:38:29.561Z,1.86
2018-11-25T11:40:59.515Z,1.75
2018-11-25T11:43:29.328Z,1.78
2018-11-25T11:45:58.522Z,1.76
2018-11-25T11:48:28.229Z,1.78
2018-11-25T11:50:57.832Z,1.78
2018-11-25T11:53:27.449Z,1.80
2018-11-25T11:55:56.992Z,1.79
2018-11-25T11:58:26.333Z,1.65
2018-11-25T12:00:55.464Z,1.81
2018-11-25T12:03:26.555Z,1.87
2018-11-25T12:05:54.142Z,1.84
2018-11-25T12:08:23.457Z,1.86
2018-11-25T12:10:53.550Z,1.86
2018-11-25T12:13:23.056Z,1.88
2018-11-25T12:15:52.689Z,1.89
2018-11-25T12:18:22.279Z,1.92
2018-11-25T12:20:51.950Z,1.91
2018-11-25T12:23:21.429Z,1.93
2018-11-25T12:25:51.193Z,1.95
2018-11-25T12:28:20.573Z,1.94
2018-11-25T12:30:50.038Z,1.95
2018-11-25T12:33:19.478Z,1.14
2018-11-25T12:35:48.931Z,2.01
2018-11-25T12:38:18.121Z,1.98
2018-11-25T12:40:47.531Z,2.02
2018-11-25T12:43:17.104Z,2.03
2018-11-25T12:45:46.505Z,2.01
2018-11-25T12:48:16.110Z,2.02
2018-11-25T12:50:45.372Z,2.09
2018-11-25T12:53:14.571Z,2.05
2018-11-25T12:55:44.094Z,2.05
2018-11-25T12:58:13.564Z,2.06
2018-11-25T13:00:44.102Z,2.05
2018-11-25T13:03:14.709Z,2.07
2018-11-25T13:05:46.249Z,2.08
2018-11-25T13:08:14.296Z,2.12
2018-11-25T13:10:43.791Z,2.10
2018-11-25T13:13:13.359Z,2.13
2018-11-25T13:15:42.542Z,2.12
2018-11-25T13:18:12.041Z,2.11
2018-11-25T13:20:50.744Z,2.14
2018-11-25T13:23:19.987Z,2.15
2018-11-25T13:25:49.317Z,2.11
2018-11-25T13:28:18.612Z,2.09
2018-11-25T13:30:48.239Z,2.07
2018-11-25T13:33:17.432Z,2.12
2018-11-25T13:35:46.615Z,2.14
2018-11-25T13:38:16.475Z,2.14
2018-11-25T13:40:45.811Z,2.10
2018-11-25T13:43:15.336Z,2.12
2018-11-25T13:45:44.787Z,2.10
2018-11-25T13:48:14.203Z,2.14
2018-11-25T13:50:43.659Z,2.15
2018-11-25T13:53:13.248Z,2.13
2018-11-25T13:55:42.436Z,2.15
2018-11-25T13:58:11.767Z,2.16
2018-11-25T14:00:47.782Z,2.16
2018-11-25T14:03:19.859Z,2.15
2018-11-25T14:05:53.023Z,2.15
2018-11-25T14:08:18.930Z,2.14
2018-11-25T14:10:48.222Z,2.15
2018-11-25T14:13:17.463Z,2.14
2018-11-25T14:15:46.794Z,2.13
2018-11-25T14:18:16.143Z,2.19
2018-11-25T14:20:45.774Z,2.13
2018-11-25T14:23:14.933Z,2.13
2018-11-25T14:25:44.320Z,2.15
2018-11-25T14:28:15.074Z,2.14
2018-11-25T14:30:44.632Z,2.14
2018-11-25T14:33:13.943Z,2.14
2018-11-25T14:35:43.615Z,2.14
2018-11-25T14:38:12.943Z,2.15
2018-11-25T14:40:42.263Z,2.14
2018-11-25T14:43:11.678Z,2.15
2018-11-25T14:45:41.096Z,2.12
2018-11-25T14:48:10.423Z,2.13
2018-11-25T14:50:39.665Z,2.10
2018-11-25T14:53:09.039Z,2.11
2018-11-25T14:55:38.556Z,1.28
2018-11-25T14:58:08.083Z,2.09
2018-11-25T15:00:37.450Z,2.04
2018-11-25T15:03:08.003Z,2.07
2018-11-25T15:05:41.103Z,2.04
2018-11-25T15:08:11.588Z,2.04
2018-11-25T15:10:41.007Z,2.00
2018-11-25T15:13:10.724Z,2.02
2018-11-25T15:15:40.070Z,1.99
2018-11-25T15:18:10.107Z,1.94
2018-11-25T15:20:39.545Z,1.91
2018-11-25T15:23:12.849Z,1.91
2018-11-25T15:25:44.534Z,1.87
2018-11-25T15:28:14.174Z,1.91
2018-11-25T15:30:43.448Z,1.86
2018-11-25T15:33:12.862Z,1.85
2018-11-25T15:35:42.153Z,1.87
2018-11-25T15:38:11.768Z,1.89
2018-11-25T15:40:41.545Z,1.89
2018-11-25T15:43:12.031Z,1.87
2018-11-25T15:45:41.446Z,1.86
2018-11-25T15:48:17.617Z,1.80
2018-11-25T15:50:47.136Z,1.79
2018-11-25T15:53:16.377Z,1.78
2018-11-25T15:55:46.885Z,1.78
2018-11-25T15:58:16.295Z,1.77
2018-11-25T16:00:45.803Z,1.73
2018-11-25T16:03:15.827Z,1.70
2018-11-25T16:05:50.204Z,1.69
2018-11-25T16:08:20.083Z,1.70
2018-11-25T16:10:49.630Z,1.72
2018-11-25T16:13:19.276Z,1.71
2018-11-25T16:15:49.065Z,1.67
2018-11-25T16:18:18.451Z,0.91
2018-11-25T16:20:47.819Z,1.59
2018-11-25T16:23:17.391Z,0.85
2018-11-25T16:25:49.248Z,1.56
2018-11-25T16:28:23.441Z,1.56
2018-11-25T16:30:52.675Z,1.55
2018-11-25T16:33:22.532Z,1.53
2018-11-25T16:35:52.076Z,1.54
2018-11-25T16:38:21.435Z,1.57
2018-11-25T16:40:50.878Z,1.51
2018-11-25T16:43:21.078Z,1.50
2018-11-25T16:45:50.482Z,1.50
2018-11-25T16:48:20.017Z,1.48
2018-11-25T16:50:49.951Z,1.46
2018-11-25T16:53:19.575Z,1.45
2018-11-25T16:55:48.932Z,1.43
2018-11-25T16:58:18.484Z,1.43
2018-11-25T17:00:47.786Z,1.44
2018-11-25T17:03:17.125Z,1.40
2018-11-25T17:05:49.132Z,1.42
2018-11-25T17:08:30.489Z,1.38
2018-11-25T17:10:59.886Z,1.37
2018-11-25T17:13:29.677Z,1.39
2018-11-25T17:15:59.003Z,1.33
2018-11-25T17:18:28.661Z,1.31
2018-11-25T17:20:58.018Z,1.29
2018-11-25T17:23:27.548Z,1.30
2018-11-25T17:25:57.279Z,1.30
2018-11-25T17:28:26.885Z,1.31
2018-11-25T17:30:56.300Z,1.27
2018-11-25T17:33:26.251Z,1.21
2018-11-25T17:35:55.730Z,1.20
2018-11-25T17:38:25.043Z,1.23
2018-11-25T17:40:54.607Z,1.22
2018-11-25T17:43:24.853Z,1.23
2018-11-25T17:45:54.282Z,1.23
2018-11-25T17:48:23.684Z,1.19
2018-11-25T17:50:53.007Z,1.14
2018-11-25T17:53:23.375Z,1.09
2018-11-25T17:55:53.175Z,1.11
2018-11-25T17:58:22.787Z,1.05
2018-11-25T18:00:59.604Z,1.01
2018-11-25T18:03:30.371Z,0.99
2018-11-25T18:06:00.038Z,0.96
2018-11-25T18:08:29.790Z,0.96
2018-11-25T18:10:59.297Z,0.96
2018-11-25T18:13:30.626Z,0.93
2018-11-25T18:16:01.390Z,0.58
2018-11-25T18:18:40.251Z,0.89
2018-11-25T18:21:11.330Z,0.86
2018-11-25T18:23:40.713Z,0.82
2018-11-25T18:26:10.025Z,0.83
2018-11-25T18:28:39.486Z,0.78
2018-11-25T18:31:09.435Z,0.74
2018-11-25T18:33:39.023Z,0.73
2018-11-25T18:36:09.877Z,0.74
2018-11-25T18:38:39.460Z,0.69
2018-11-25T18:41:08.755Z,0.64
2018-11-25T18:43:38.200Z,0.62
2018-11-25T18:46:08.197Z,0.63
2018-11-25T18:48:39.471Z,0.67
2018-11-25T18:51:08.682Z,0.62
2018-11-25T18:53:38.308Z,0.60
2018-11-25T18:56:08.025Z,0.62
2018-11-25T18:58:37.260Z,0.60
2018-11-25T19:01:26.324Z,0.59
2018-11-25T19:03:55.523Z,0.56
2018-11-25T19:06:24.896Z,0.60
2018-11-25T19:08:54.603Z,0.65
2018-11-25T19:11:24.194Z,0.61
2018-11-25T19:13:53.692Z,0.62
2018-11-25T19:16:23.347Z,0.61
2018-11-25T19:18:52.455Z,0.60
2018-11-25T19:21:22.183Z,0.58
2018-11-25T19:23:52.004Z,0.41
2018-11-25T19:26:21.115Z,0.55
2018-11-25T19:28:50.437Z,0.51
2018-11-25T19:31:20.018Z,0.56
2018-11-25T19:33:49.259Z,0.54
2018-11-25T19:36:18.499Z,0.43
2018-11-25T19:38:48.003Z,0.40
2018-11-25T19:41:17.350Z,0.41
2018-11-25T19:43:46.866Z,0.42
2018-11-25T19:46:16.726Z,0.41
2018-11-25T19:48:46.080Z,0.42
2018-11-25T19:51:17.687Z,0.37
2018-11-25T19:53:45.134Z,0.20
2018-11-25T19:56:14.255Z,0.36
2018-11-25T19:58:43.564Z,0.34
2018-11-25T20:01:13.260Z,0.32
2018-11-25T20:03:42.879Z,0.34
2018-11-25T20:06:12.111Z,0.31
2018-11-25T20:08:41.879Z,0.29
2018-11-25T20:11:11.377Z,0.29
2018-11-25T20:13:40.977Z,0.04
2018-11-25T20:16:15.568Z,0.24
2018-11-25T20:18:45.075Z,0.28
2018-11-25T20:21:19.739Z,0.29
2018-11-25T20:23:49.068Z,0.05
2018-11-25T20:26:18.347Z,0.07
2018-11-25T20:28:47.965Z,0.04
2018-11-25T20:31:17.205Z,-0.09
2018-11-25T20:33:52.211Z,-0.03
2018-11-25T20:36:20.862Z,0.06
2018-11-25T20:38:55.452Z,0.03
2018-11-25T20:41:24.642Z,0.04
2018-11-25T20:43:54.161Z,0.01
2018-11-25T20:46:28.566Z,-0.04
2018-11-25T20:48:58.349Z,-0.08
2018-11-25T20:51:32.857Z,-0.14
2018-11-25T20:54:02.365Z,-0.19
2018-11-25T20:56:31.710Z,-0.22
2018-11-25T20:59:01.295Z,-0.21
2018-11-25T21:01:30.738Z,-0.19
2018-11-25T21:04:00.379Z,-0.19
2018-11-25T21:06:29.983Z,-0.20
2018-11-25T21:08:59.316Z,-0.23
2018-11-25T21:11:28.542Z,-0.23
2018-11-25T21:13:58.233Z,-0.27
2018-11-25T21:16:27.920Z,-0.30
2018-11-25T21:18:57.710Z,-0.38
2018-11-25T21:21:27.303Z,-0.43
2018-11-25T21:23:56.868Z,-0.43
2018-11-25T21:26:26.531Z,-0.44
2018-11-25T21:28:56.025Z,-0.43
2018-11-25T21:31:25.720Z,-0.45
2018-11-25T21:33:55.154Z,-0.48
2018-11-25T21:36:24.531Z,-1.34
2018-11-25T21:38:53.871Z,-0.53
2018-11-25T21:41:23.556Z,-0.53
2018-11-25T21:43:53.017Z,-0.52
2018-11-25T21:46:22.423Z,-0.53
2018-11-25T21:48:52.191Z,-0.51
2018-11-25T21:51:21.558Z,-0.56
2018-11-25T21:53:51.068Z,-0.60
2018-11-25T21:56:20.448Z,-0.62
2018-11-25T21:58:49.802Z,-0.64
2018-11-25T22:01:19.125Z,-0.63
2018-11-25T22:03:48.668Z,-0.61
2018-11-25T22:06:18.184Z,-0.63
2018-11-25T22:08:47.459Z,-0.61
2018-11-25T22:11:16.787Z,-0.64
2018-11-25T22:13:46.125Z,-0.67
2018-11-25T22:16:15.416Z,-0.68
2018-11-25T22:18:45.029Z,-0.72
2018-11-25T22:21:14.578Z,-0.80
2018-11-25T22:23:44.171Z,-0.81
2018-11-25T22:26:13.529Z,-0.81
2018-11-25T22:28:42.877Z,-0.81
2018-11-25T22:31:12.201Z,-0.83
2018-11-25T22:33:41.619Z,-0.86
2018-11-25T22:36:11.060Z,-0.86
2018-11-25T22:38:40.305Z,-0.89
2018-11-25T22:41:09.866Z,-0.91
2018-11-25T22:43:39.315Z,-0.93
2018-11-25T22:46:08.654Z,-0.94
2018-11-25T22:48:38.267Z,-0.95
2018-11-25T22:51:07.603Z,-0.96
2018-11-25T22:53:37.177Z,-0.95
2018-11-25T22:56:06.596Z,-0.98
2018-11-25T22:58:35.686Z,-1.01
2018-11-25T23:01:05.059Z,-1.03
2018-11-25T23:03:34.561Z,-1.17
2018-11-25T23:06:14.628Z,-1.00
2018-11-25T23:08:44.663Z,-1.01
2018-11-25T23:11:14.044Z,-1.03
2018-11-25T23:13:43.447Z,-1.06
2018-11-25T23:16:12.824Z,-1.03
2018-11-25T23:18:42.204Z,-1.04
2018-11-25T23:21:11.363Z,-1.05
2018-11-25T23:23:40.935Z,-1.08
2018-11-25T23:26:10.257Z,-1.07
2018-11-25T23:28:39.672Z,-1.05
2018-11-25T23:31:09.084Z,-1.10
2018-11-25T23:33:38.470Z,-1.14
2018-11-25T23:36:08.007Z,-1.14
2018-11-25T23:38:37.575Z,-1.15
2018-11-25T23:41:07.018Z,-1.16
2018-11-25T23:43:36.301Z,-1.18
2018-11-25T23:46:06.527Z,-1.18
2018-11-25T23:48:35.772Z,-1.21
2018-11-25T23:51:05.125Z,-1.20
2018-11-25T23:53:34.687Z,-1.22
2018-11-25T23:56:04.395Z,-1.21
2018-11-25T23:58:33.607Z,-1.26
